Time;durP1;ratioP1;P1;durP2;ratioP2;P2;SDS_P1;SDS_P2;PMS_P1;PMS_P2;Temp;Humidity;BMP_temperature;BMP_pressure;BME280_temperature;BME280_humidity;BME280_pressure;Samples;Min_cycle;Max_cycle;Signal;HPM_P1;HPM_P2
2022/02/17 00:00:49;;;;;;;;;;;24.40;42.80;;;;;;1521682;78;1148;-69
2022/02/17 00:02:53;;;;;;;;;;;24.50;42.80;;;;;;1524654;77;772;-69
2022/02/17 00:04:55;;;;;;;;;;;24.40;42.80;;;;;;1522004;78;1928;-69
2022/02/17 00:06:57;;;;;;;;;;;24.50;42.90;;;;;;1525659;78;770;-69
2022/02/17 00:08:59;;;;;;;;;;;24.40;42.80;;;;;;1517374;78;717;-70
2022/02/17 00:11:00;;;;;;;;;;;24.50;42.90;;;;;;1525687;77;1171;-70
2022/02/17 00:13:03;;;;;;;;;;;24.40;42.90;;;;;;1520374;78;736;-70
2022/02/17 00:15:05;;;;;;;;;;;24.40;42.90;;;;;;1521437;78;731;-70
2022/02/17 00:17:07;;;;;;;;;;;24.40;42.90;;;;;;1525714;78;711;-69
2022/02/17 00:19:09;;;;;;;;;;;24.40;42.90;;;;;;1517339;78;729;-69
2022/02/17 00:21:11;;;;;;;;;;;24.30;43.00;;;;;;1523581;78;1168;-67
2022/02/17 00:23:13;;;;;;;;;;;24.40;43.00;;;;;;1519233;78;794;-68
2022/02/17 00:25:15;;;;;;;;;;;24.40;42.90;;;;;;1523928;77;1929;-67
2022/02/17 00:27:17;;;;;;;;;;;24.40;43.00;;;;;;1525395;77;795;-69
2022/02/17 00:29:19;;;;;;;;;;;24.30;43.00;;;;;;1519657;78;753;-70
2022/02/17 00:31:20;;;;;;;;;;;24.30;43.00;;;;;;1525654;78;1136;-70
2022/02/17 00:33:22;;;;;;;;;;;24.30;43.00;;;;;;1511728;78;778;-70
2022/02/17 00:35:24;;;;;;;;;;;24.30;43.00;;;;;;1518431;78;721;-69
2022/02/17 00:37:26;;;;;;;;;;;24.30;43.00;;;;;;1522969;78;723;-69
2022/02/17 00:39:28;;;;;;;;;;;24.40;43.10;;;;;;1519340;77;726;-70
2022/02/17 00:41:30;;;;;;;;;;;24.30;43.10;;;;;;1524180;77;1142;-70
2022/02/17 00:43:32;;;;;;;;;;;24.30;43.10;;;;;;1519255;78;709;-69
2022/02/17 00:45:34;;;;;;;;;;;24.30;43.10;;;;;;1525022;78;1948;-69
2022/02/17 00:47:36;;;;;;;;;;;24.30;43.10;;;;;;1525710;78;690;-69
2022/02/17 00:49:38;;;;;;;;;;;24.30;43.10;;;;;;1519696;78;804;-69
2022/02/17 00:51:40;;;;;;;;;;;24.30;43.10;;;;;;1525573;77;1151;-68
2022/02/17 00:53:41;;;;;;;;;;;24.40;43.10;;;;;;1521219;77;776;-70
2022/02/17 00:55:43;;;;;;;;;;;24.30;43.10;;;;;;1525674;78;720;-69
2022/02/17 00:57:45;;;;;;;;;;;24.40;43.10;;;;;;1525643;78;724;-69
2022/02/17 00:59:47;;;;;;;;;;;24.30;43.10;;;;;;1523074;78;1078;-69
2022/02/17 01:01:49;;;;;;;;;;;24.30;43.20;;;;;;1515074;78;723;-69
2022/02/17 01:03:51;;;;;;;;;;;24.30;43.20;;;;;;1522153;77;759;-68
2022/02/17 01:05:53;;;;;;;;;;;24.30;43.30;;;;;;1522504;78;1941;-68
2022/02/17 01:07:55;;;;;;;;;;;24.30;43.30;;;;;;1518489;78;789;-69
2022/02/17 01:09:57;;;;;;;;;;;24.30;43.30;;;;;;1524986;78;1148;-68
2022/02/17 01:11:59;;;;;;;;;;;24.30;43.30;;;;;;1519563;78;700;-68
2022/02/17 01:14:01;;;;;;;;;;;24.20;43.10;;;;;;1511605;78;698;-68
2022/02/17 01:16:03;;;;;;;;;;;24.30;43.20;;;;;;1520836;77;670;-68
2022/02/17 01:18:04;;;;;;;;;;;24.20;43.10;;;;;;1523349;78;612;-69
2022/02/17 01:20:07;;;;;;;;;;;24.20;43.30;;;;;;1524764;78;1168;-70
2022/02/17 01:22:09;;;;;;;;;;;24.20;43.20;;;;;;1514109;77;728;-69
2022/02/17 01:24:11;;;;;;;;;;;24.20;43.20;;;;;;1524632;78;691;-69
2022/02/17 01:26:13;;;;;;;;;;;24.30;43.30;;;;;;1520099;78;1928;-68
2022/02/17 01:28:15;;;;;;;;;;;24.30;43.30;;;;;;1524089;78;753;-69
2022/02/17 01:30:17;;;;;;;;;;;24.30;43.40;;;;;;1525734;77;1219;-69
2022/02/17 01:32:19;;;;;;;;;;;24.20;43.30;;;;;;1521673;77;706;-68
2022/02/17 01:34:21;;;;;;;;;;;24.20;43.20;;;;;;1516843;78;828;-69
2022/02/17 01:36:23;;;;;;;;;;;24.20;43.20;;;;;;1521715;77;719;-71
2022/02/17 01:38:25;;;;;;;;;;;24.20;43.20;;;;;;1509113;78;743;-69
2022/02/17 01:40:27;;;;;;;;;;;24.30;43.40;;;;;;1509263;78;1142;-68
2022/02/17 01:42:29;;;;;;;;;;;24.20;43.20;;;;;;1517531;78;792;-68
2022/02/17 01:44:32;;;;;;;;;;;24.20;43.20;;;;;;1523889;78;702;-68
2022/02/17 01:46:35;;;;;;;;;;;24.20;43.20;;;;;;1524769;77;1955;-70
2022/02/17 01:48:37;;;;;;;;;;;24.20;43.30;;;;;;1525559;78;684;-69
2022/02/17 01:50:41;;;;;;;;;;;24.20;43.40;;;;;;1523360;78;1158;-67
2022/02/17 01:52:42;;;;;;;;;;;24.20;43.30;;;;;;1513431;78;1801;-66
2022/02/17 01:54:45;;;;;;;;;;;24.30;43.60;;;;;;1520271;78;698;-69
2022/02/17 01:56:48;;;;;;;;;;;24.20;43.40;;;;;;1523846;78;750;-69
2022/02/17 01:58:50;;;;;;;;;;;24.20;43.40;;;;;;1522208;78;753;-68
2022/02/17 02:00:52;;;;;;;;;;;24.20;43.40;;;;;;1525012;78;1203;-69
2022/02/17 02:02:54;;;;;;;;;;;24.10;43.40;;;;;;1521556;78;775;-69
2022/02/17 02:04:55;;;;;;;;;;;24.20;43.40;;;;;;1521906;78;677;-68
2022/02/17 02:06:57;;;;;;;;;;;24.20;43.40;;;;;;1517942;78;1944;-70
2022/02/17 02:08:59;;;;;;;;;;;24.10;43.50;;;;;;1520155;78;742;-68
2022/02/17 02:11:01;;;;;;;;;;;24.20;43.40;;;;;;1493927;77;1101;-67
2022/02/17 02:13:03;;;;;;;;;;;24.20;43.50;;;;;;1502183;77;746;-67
2022/02/17 02:15:05;;;;;;;;;;;24.10;43.50;;;;;;1502939;79;781;-67
2022/02/17 02:17:11;;;;;;;;;;;24.10;43.50;;;;;;1522763;78;836;-68
2022/02/17 02:19:11;;;;;;;;;;;24.10;43.50;;;;;;1524209;77;1125;-68
2022/02/17 02:21:13;;;;;;;;;;;24.20;43.60;;;;;;1525546;78;1191;-67
2022/02/17 02:23:15;;;;;;;;;;;24.10;43.60;;;;;;1524121;78;775;-67
2022/02/17 02:25:17;;;;;;;;;;;24.10;43.60;;;;;;1519650;78;787;-67
2022/02/17 02:27:19;;;;;;;;;;;24.10;43.60;;;;;;1524759;78;1933;-68
2022/02/17 02:29:21;;;;;;;;;;;24.10;43.60;;;;;;1524518;78;695;-67
2022/02/17 02:31:23;;;;;;;;;;;24.20;43.60;;;;;;1520570;78;1140;-69
2022/02/17 02:33:25;;;;;;;;;;;24.20;43.70;;;;;;1525431;77;732;-70
2022/02/17 02:35:27;;;;;;;;;;;24.10;43.70;;;;;;1521254;78;733;-68
2022/02/17 02:37:29;;;;;;;;;;;24.20;43.70;;;;;;1524727;78;759;-68
2022/02/17 02:39:31;;;;;;;;;;;24.10;43.70;;;;;;1525733;78;723;-69
2022/02/17 02:41:33;;;;;;;;;;;24.10;43.60;;;;;;1522035;78;1116;-68
2022/02/17 02:43:36;;;;;;;;;;;24.20;43.70;;;;;;1517722;78;799;-68
2022/02/17 02:45:38;;;;;;;;;;;24.10;43.70;;;;;;1521383;78;1916;-70
2022/02/17 02:47:39;;;;;;;;;;;24.00;43.60;;;;;;1514490;78;706;-69
2022/02/17 02:49:41;;;;;;;;;;;24.10;43.70;;;;;;1518050;78;697;-68
2022/02/17 02:51:43;;;;;;;;;;;24.10;43.80;;;;;;1525736;77;711;-68
2022/02/17 02:53:47;;;;;;;;;;;24.10;43.80;;;;;;1518930;78;710;-68
2022/02/17 02:55:49;;;;;;;;;;;24.20;43.70;;;;;;1523779;77;1179;-70
2022/02/17 02:57:51;;;;;;;;;;;24.00;43.60;;;;;;1522902;78;734;-68
2022/02/17 02:59:53;;;;;;;;;;;24.10;43.80;;;;;;1523016;78;1260;-70
2022/02/17 03:01:55;;;;;;;;;;;24.10;43.70;;;;;;1525714;77;644;-69
2022/02/17 03:03:57;;;;;;;;;;;24.00;43.60;;;;;;1519903;77;777;-71
2022/02/17 03:05:59;;;;;;;;;;;24.10;43.80;;;;;;1524854;78;1926;-69
2022/02/17 03:08:01;;;;;;;;;;;24.10;43.80;;;;;;1520426;78;713;-68
2022/02/17 03:10:03;;;;;;;;;;;24.00;43.60;;;;;;1518772;78;1172;-68
2022/02/17 03:12:05;;;;;;;;;;;24.00;43.70;;;;;;1519952;78;703;-67
2022/02/17 03:14:09;;;;;;;;;;;24.10;43.90;;;;;;1518079;78;719;-67
2022/02/17 03:16:10;;;;;;;;;;;24.10;43.80;;;;;;1518354;77;1156;-68
2022/02/17 03:18:12;;;;;;;;;;;24.00;43.70;;;;;;1523637;78;775;-67
2022/02/17 03:20:14;;;;;;;;;;;24.00;43.70;;;;;;1524862;77;1080;-67
2022/02/17 03:22:16;;;;;;;;;;;24.00;43.70;;;;;;1518151;78;727;-67
2022/02/17 03:24:18;;;;;;;;;;;24.20;43.90;;;;;;1522625;78;712;-69
2022/02/17 03:26:20;;;;;;;;;;;24.10;43.90;;;;;;1518471;78;1942;-68
2022/02/17 03:28:22;;;;;;;;;;;24.00;43.80;;;;;;1523517;78;733;-68
2022/02/17 03:30:24;;;;;;;;;;;24.10;44.00;;;;;;1524645;78;1183;-71
2022/02/17 03:32:25;;;;;;;;;;;24.10;44.00;;;;;;1525713;78;654;-70
2022/02/17 03:34:27;;;;;;;;;;;24.10;44.00;;;;;;1523593;78;725;-71
2022/02/17 03:36:29;;;;;;;;;;;24.10;44.00;;;;;;1517122;78;700;-71
2022/02/17 03:38:31;;;;;;;;;;;24.20;44.00;;;;;;1524767;78;711;-71
2022/02/17 03:40:33;;;;;;;;;;;24.20;44.10;;;;;;1525621;78;1193;-71
2022/02/17 03:42:35;;;;;;;;;;;24.20;44.00;;;;;;1519801;78;702;-69
2022/02/17 03:44:37;;;;;;;;;;;24.30;44.10;;;;;;1524419;78;791;-70
2022/02/17 03:46:39;;;;;;;;;;;24.30;44.00;;;;;;1522515;78;1939;-69
2022/02/17 03:48:41;;;;;;;;;;;24.30;43.90;;;;;;1512914;78;718;-68
2022/02/17 03:50:43;;;;;;;;;;;24.50;43.80;;;;;;1523846;77;1176;-70
2022/02/17 03:52:45;;;;;;;;;;;24.50;43.70;;;;;;1521642;78;769;-67
2022/02/17 03:54:47;;;;;;;;;;;24.50;43.60;;;;;;1525587;78;710;-66
2022/02/17 03:56:49;;;;;;;;;;;24.60;43.60;;;;;;1521008;78;713;-67
2022/02/17 03:59:03;;;;;;;;;;;24.60;43.40;;;;;;1523104;78;702;-69
2022/02/17 04:01:05;;;;;;;;;;;24.60;43.40;;;;;;1509220;78;1186;-68
2022/02/17 04:03:07;;;;;;;;;;;24.60;43.30;;;;;;1518895;78;694;-68
2022/02/17 04:05:09;;;;;;;;;;;24.70;43.40;;;;;;1517624;78;803;-69
2022/02/17 04:07:10;;;;;;;;;;;24.70;43.30;;;;;;1522592;78;1940;-67
2022/02/17 04:09:12;;;;;;;;;;;24.70;43.20;;;;;;1525650;78;745;-67
2022/02/17 04:11:14;;;;;;;;;;;24.70;43.30;;;;;;1524731;77;1176;-67
2022/02/17 04:13:16;;;;;;;;;;;24.70;43.20;;;;;;1525738;78;717;-66
2022/02/17 04:15:18;;;;;;;;;;;24.80;43.20;;;;;;1518866;78;987;-66
2022/02/17 04:17:20;;;;;;;;;;;24.70;43.20;;;;;;1523708;77;684;-66
2022/02/17 04:19:22;;;;;;;;;;;24.70;43.20;;;;;;1520182;77;804;-67
2022/02/17 04:21:24;;;;;;;;;;;24.70;43.20;;;;;;1518560;78;1159;-67
2022/02/17 04:23:25;;;;;;;;;;;24.70;43.10;;;;;;1522818;78;755;-66
2022/02/17 04:25:27;;;;;;;;;;;24.80;43.10;;;;;;1509062;78;697;-65
2022/02/17 04:27:29;;;;;;;;;;;24.70;43.10;;;;;;1525458;78;1930;-65
2022/02/17 04:29:31;;;;;;;;;;;24.80;43.10;;;;;;1523135;78;653;-66
2022/02/17 04:31:33;;;;;;;;;;;24.80;43.10;;;;;;1519968;78;1079;-66
2022/02/17 04:33:35;;;;;;;;;;;24.70;43.10;;;;;;1524955;78;706;-66
2022/02/17 04:35:37;;;;;;;;;;;24.80;43.10;;;;;;1512267;78;648;-66
2022/02/17 04:37:39;;;;;;;;;;;24.80;43.00;;;;;;1520291;78;742;-65
2022/02/17 04:39:40;;;;;;;;;;;24.80;42.90;;;;;;1524622;78;706;-65
2022/02/17 04:44:02;;;;;;;;;;;24.80;42.80;;;;;;1520093;78;1654;-66
2022/02/17 04:46:04;;;;;;;;;;;24.80;42.80;;;;;;1523488;78;711;-68
2022/02/17 04:48:06;;;;;;;;;;;24.80;42.90;;;;;;1525474;78;1918;-67
2022/02/17 04:50:08;;;;;;;;;;;24.80;42.90;;;;;;1523817;77;1156;-67
2022/02/17 04:52:10;;;;;;;;;;;24.80;43.00;;;;;;1525323;78;699;-67
2022/02/17 04:54:13;;;;;;;;;;;24.80;42.90;;;;;;1525632;78;763;-67
2022/02/17 04:56:15;;;;;;;;;;;24.80;42.90;;;;;;1521047;78;741;-66
2022/02/17 04:58:17;;;;;;;;;;;24.80;42.80;;;;;;1524430;78;770;-67
2022/02/17 05:00:19;;;;;;;;;;;24.80;42.80;;;;;;1520039;78;1208;-68
2022/02/17 05:02:20;;;;;;;;;;;24.80;42.80;;;;;;1525138;77;684;-67
2022/02/17 05:04:22;;;;;;;;;;;24.80;42.80;;;;;;1525588;77;795;-67
2022/02/17 05:06:24;;;;;;;;;;;24.80;42.80;;;;;;1519812;78;1934;-72
2022/02/17 05:08:26;;;;;;;;;;;24.80;43.00;;;;;;1515861;78;773;-73
2022/02/17 05:10:28;;;;;;;;;;;24.80;42.80;;;;;;1524251;78;1154;-73
2022/02/17 05:12:30;;;;;;;;;;;24.90;42.80;;;;;;1525595;77;765;-73
2022/02/17 05:14:32;;;;;;;;;;;25.00;42.70;;;;;;1525052;78;936;-73
2022/02/17 05:16:34;;;;;;;;;;;24.90;42.60;;;;;;1524160;78;745;-72
2022/02/17 05:18:36;;;;;;;;;;;25.00;42.50;;;;;;1525377;78;696;-73
2022/02/17 05:20:38;;;;;;;;;;;24.90;42.40;;;;;;1524826;78;1170;-73
2022/02/17 05:22:40;;;;;;;;;;;25.00;42.30;;;;;;1518158;78;760;-71
2022/02/17 05:24:42;;;;;;;;;;;25.00;42.30;;;;;;1525743;78;745;-72
2022/02/17 05:26:44;;;;;;;;;;;25.00;42.30;;;;;;1524174;78;1924;-72
2022/02/17 05:28:46;;;;;;;;;;;25.00;42.20;;;;;;1524022;78;698;-72
2022/02/17 05:30:48;;;;;;;;;;;25.00;42.20;;;;;;1525247;78;1172;-73
2022/02/17 05:32:50;;;;;;;;;;;25.00;42.20;;;;;;1523134;78;734;-73
2022/02/17 05:34:51;;;;;;;;;;;25.00;42.30;;;;;;1522686;78;733;-72
2022/02/17 05:36:53;;;;;;;;;;;25.00;42.30;;;;;;1525176;78;713;-72
2022/02/17 05:38:55;;;;;;;;;;;25.00;42.30;;;;;;1524466;77;701;-72
2022/02/17 05:40:57;;;;;;;;;;;25.00;42.30;;;;;;1523535;78;1110;-72
2022/02/17 05:42:59;;;;;;;;;;;24.90;42.30;;;;;;1525298;78;672;-72
2022/02/17 05:45:01;;;;;;;;;;;24.90;42.30;;;;;;1525327;78;729;-72
2022/02/17 05:47:03;;;;;;;;;;;24.90;42.30;;;;;;1522195;78;1930;-72
2022/02/17 05:49:05;;;;;;;;;;;24.90;42.30;;;;;;1524849;77;741;-71
2022/02/17 05:51:07;;;;;;;;;;;24.90;42.40;;;;;;1524953;78;1178;-72
2022/02/17 05:53:08;;;;;;;;;;;24.90;42.40;;;;;;1525452;78;914;-73
2022/02/17 05:55:10;;;;;;;;;;;24.90;42.30;;;;;;1523381;78;731;-73
2022/02/17 05:57:12;;;;;;;;;;;25.00;42.30;;;;;;1525404;77;724;-72
2022/02/17 05:59:14;;;;;;;;;;;25.00;42.30;;;;;;1524582;77;708;-70
2022/02/17 06:01:16;;;;;;;;;;;25.00;42.30;;;;;;1525439;78;1123;-71
2022/02/17 06:03:18;;;;;;;;;;;24.90;42.40;;;;;;1525445;78;780;-75
2022/02/17 06:05:20;;;;;;;;;;;24.90;42.50;;;;;;1520770;78;756;-65
2022/02/17 06:07:22;;;;;;;;;;;24.90;42.60;;;;;;1516933;77;1925;-71
2022/02/17 06:09:23;;;;;;;;;;;24.80;42.60;;;;;;1525482;78;791;-71
2022/02/17 06:11:25;;;;;;;;;;;24.90;42.60;;;;;;1517080;78;1194;-71
2022/02/17 06:13:27;;;;;;;;;;;24.90;42.50;;;;;;1521753;78;708;-72
2022/02/17 06:15:29;;;;;;;;;;;25.00;42.30;;;;;;1510765;78;720;-72
2022/02/17 06:17:31;;;;;;;;;;;25.00;42.20;;;;;;1522544;78;718;-74
2022/02/17 06:19:33;;;;;;;;;;;25.00;42.20;;;;;;1524743;78;730;-73
2022/02/17 06:21:35;;;;;;;;;;;25.00;42.20;;;;;;1525642;77;1131;-72
2022/02/17 06:23:37;;;;;;;;;;;25.00;42.10;;;;;;1523248;78;714;-72
2022/02/17 06:25:38;;;;;;;;;;;25.10;42.10;;;;;;1518775;77;722;-66
2022/02/17 06:27:40;;;;;;;;;;;25.00;42.10;;;;;;1513143;78;1948;-72
2022/02/17 06:29:42;;;;;;;;;;;25.00;42.20;;;;;;1523853;78;709;-73
2022/02/17 06:31:44;;;;;;;;;;;25.00;42.10;;;;;;1521157;78;660;-72
2022/02/17 06:33:46;;;;;;;;;;;25.00;42.10;;;;;;1525447;78;789;-72
2022/02/17 06:35:48;;;;;;;;;;;24.90;42.20;;;;;;1525519;78;722;-73
2022/02/17 06:37:53;;;;;;;;;;;25.00;42.20;;;;;;1524694;78;748;-71
2022/02/17 06:39:55;;;;;;;;;;;24.90;42.20;;;;;;1520940;78;1206;-72
2022/02/17 06:41:57;;;;;;;;;;;25.00;42.20;;;;;;1523463;78;719;-73
2022/02/17 06:43:59;;;;;;;;;;;25.00;42.20;;;;;;1524426;78;700;-72
2022/02/17 06:46:01;;;;;;;;;;;25.00;42.10;;;;;;1521002;78;791;-68
2022/02/17 06:48:03;;;;;;;;;;;24.90;42.10;;;;;;1517694;78;1934;-69
2022/02/17 06:50:05;;;;;;;;;;;24.90;42.20;;;;;;1524404;78;1179;-72
2022/02/17 06:52:07;;;;;;;;;;;25.00;42.20;;;;;;1517315;77;728;-72
2022/02/17 06:54:09;;;;;;;;;;;24.90;42.10;;;;;;1525459;78;779;-72
2022/02/17 06:56:11;;;;;;;;;;;25.00;42.10;;;;;;1525461;78;722;-72
2022/02/17 06:58:13;;;;;;;;;;;25.00;42.10;;;;;;1520505;77;704;-72
2022/02/17 07:00:15;;;;;;;;;;;24.90;42.10;;;;;;1524770;78;1168;-72
2022/02/17 07:02:23;;;;;;;;;;;25.00;42.10;;;;;;1506951;78;722;-72
2022/02/17 07:04:25;;;;;;;;;;;25.00;42.20;;;;;;1512549;78;718;-72
2022/02/17 07:06:27;;;;;;;;;;;24.90;42.20;;;;;;1515739;78;796;-70
2022/02/17 07:08:29;;;;;;;;;;;24.90;42.20;;;;;;1525404;78;1940;-70
2022/02/17 07:12:50;;;;;;;;;;;24.90;42.20;;;;;;1524083;78;1680;-69
2022/02/17 07:14:56;;;;;;;;;;;24.90;42.30;;;;;;1521827;78;787;-70
2022/02/17 07:16:59;;;;;;;;;;;24.90;42.30;;;;;;1521156;78;1059;-68
2022/02/17 07:18:59;;;;;;;;;;;24.80;42.20;;;;;;1525287;77;1614;-71
2022/02/17 07:21:01;;;;;;;;;;;24.80;42.30;;;;;;1524190;78;1124;-70
2022/02/17 07:23:03;;;;;;;;;;;24.80;42.30;;;;;;1524173;78;709;-71
2022/02/17 07:25:05;;;;;;;;;;;24.80;42.30;;;;;;1525023;78;692;-72
2022/02/17 07:27:07;;;;;;;;;;;24.80;42.30;;;;;;1523122;78;762;-69
2022/02/17 07:29:09;;;;;;;;;;;24.80;42.30;;;;;;1524601;78;1972;-72
2022/02/17 07:31:14;;;;;;;;;;;24.70;42.30;;;;;;1519135;77;1144;-72
2022/02/17 07:33:17;;;;;;;;;;;24.80;42.40;;;;;;1511666;78;706;-70
2022/02/17 07:35:18;;;;;;;;;;;24.70;42.30;;;;;;1525235;78;773;-71
2022/02/17 07:37:20;;;;;;;;;;;24.70;42.30;;;;;;1521664;78;782;-70
2022/02/17 07:39:22;;;;;;;;;;;24.70;42.30;;;;;;1525658;78;721;-73
2022/02/17 07:41:24;;;;;;;;;;;24.70;42.30;;;;;;1524215;78;1151;-72
2022/02/17 07:43:26;;;;;;;;;;;24.70;42.30;;;;;;1525653;78;699;-70
2022/02/17 07:45:28;;;;;;;;;;;24.60;42.10;;;;;;1524641;78;760;-69
2022/02/17 07:47:30;;;;;;;;;;;24.70;42.30;;;;;;1521304;78;1948;-70
2022/02/17 07:49:32;;;;;;;;;;;24.70;42.30;;;;;;1524499;78;717;-70
2022/02/17 07:51:34;;;;;;;;;;;24.60;42.20;;;;;;1521718;78;1144;-70
2022/02/17 07:53:35;;;;;;;;;;;24.60;42.10;;;;;;1525488;78;793;-70
2022/02/17 07:55:37;;;;;;;;;;;24.60;42.10;;;;;;1525608;78;669;-71
2022/02/17 07:57:40;;;;;;;;;;;24.60;42.10;;;;;;1522151;78;774;-77
2022/02/17 07:59:41;;;;;;;;;;;24.50;42.20;;;;;;1525428;78;721;-69
2022/02/17 08:01:43;;;;;;;;;;;24.60;42.10;;;;;;1513932;78;732;-71
2022/02/17 08:03:46;;;;;;;;;;;24.60;42.10;;;;;;1524374;77;745;-70
2022/02/17 08:05:47;;;;;;;;;;;24.50;42.10;;;;;;1520469;78;703;-69
2022/02/17 08:07:49;;;;;;;;;;;24.50;42.10;;;;;;1514211;78;1936;-69
2022/02/17 08:09:53;;;;;;;;;;;24.50;42.10;;;;;;1525355;78;1168;-69
2022/02/17 08:11:55;;;;;;;;;;;24.60;42.10;;;;;;1525546;77;716;-69
2022/02/17 08:13:57;;;;;;;;;;;24.50;42.10;;;;;;1525529;78;733;-70
2022/02/17 08:15:59;;;;;;;;;;;24.50;42.10;;;;;;1523567;78;679;-70
2022/02/17 08:18:00;;;;;;;;;;;24.50;42.10;;;;;;1524794;78;722;-72
2022/02/17 08:20:03;;;;;;;;;;;24.50;42.10;;;;;;1520748;77;1159;-70
2022/02/17 08:22:05;;;;;;;;;;;24.50;42.00;;;;;;1515706;78;714;-70
2022/02/17 08:24:07;;;;;;;;;;;24.40;41.90;;;;;;1520374;78;718;-71
2022/02/17 08:26:09;;;;;;;;;;;24.50;42.00;;;;;;1524927;78;714;-70
2022/02/17 08:28:10;;;;;;;;;;;24.50;42.00;;;;;;1525697;78;1920;-69
2022/02/17 08:30:12;;;;;;;;;;;24.50;41.90;;;;;;1525282;78;1156;-70
2022/02/17 08:32:14;;;;;;;;;;;24.40;41.90;;;;;;1525622;77;686;-70
2022/02/17 08:34:19;;;;;;;;;;;24.40;41.80;;;;;;1521276;78;717;-69
2022/02/17 08:36:23;;;;;;;;;;;24.50;42.00;;;;;;1525546;77;738;-70
2022/02/17 08:38:31;;;;;;;;;;;24.40;41.80;;;;;;1515621;77;990;-70
2022/02/17 08:40:28;;;;;;;;;;;24.40;41.80;;;;;;1524696;77;1199;-70
2022/02/17 08:42:30;;;;;;;;;;;24.40;41.90;;;;;;1525592;78;726;-74
2022/02/17 08:44:32;;;;;;;;;;;24.40;41.80;;;;;;1525669;78;734;-68
2022/02/17 08:46:34;;;;;;;;;;;24.40;41.90;;;;;;1522574;78;721;-68
2022/02/17 08:48:36;;;;;;;;;;;24.40;41.80;;;;;;1523806;78;1927;-67
2022/02/17 08:50:39;;;;;;;;;;;24.40;41.90;;;;;;1519613;78;1189;-68
2022/02/17 08:52:41;;;;;;;;;;;24.50;41.90;;;;;;1525336;77;716;-69
2022/02/17 08:54:43;;;;;;;;;;;24.50;41.90;;;;;;1521185;78;701;-70
2022/02/17 08:56:44;;;;;;;;;;;24.50;41.80;;;;;;1525190;78;749;-68
2022/02/17 08:58:46;;;;;;;;;;;24.50;41.90;;;;;;1520216;78;828;-68
2022/02/17 09:00:48;;;;;;;;;;;24.50;41.90;;;;;;1523255;77;1164;-68
2022/02/17 09:02:50;;;;;;;;;;;24.50;41.90;;;;;;1516690;78;797;-68
2022/02/17 09:04:52;;;;;;;;;;;24.40;41.70;;;;;;1524262;78;768;-68
2022/02/17 09:06:54;;;;;;;;;;;24.40;41.80;;;;;;1525235;78;820;-68
2022/02/17 09:08:56;;;;;;;;;;;24.50;41.80;;;;;;1519140;78;1910;-69
2022/02/17 09:10:58;;;;;;;;;;;24.50;41.80;;;;;;1513775;78;1487;-71
2022/02/17 09:13:00;;;;;;;;;;;24.40;41.70;;;;;;1520899;78;798;-68
2022/02/17 09:15:02;;;;;;;;;;;24.40;41.70;;;;;;1523129;78;721;-68
2022/02/17 09:17:04;;;;;;;;;;;24.40;41.70;;;;;;1525649;78;696;-67
2022/02/17 09:19:06;;;;;;;;;;;24.40;41.60;;;;;;1524469;78;705;-70
2022/02/17 09:21:08;;;;;;;;;;;24.50;41.70;;;;;;1519586;78;1132;-67
2022/02/17 09:23:10;;;;;;;;;;;24.50;41.70;;;;;;1519012;78;740;-68
2022/02/17 09:25:11;;;;;;;;;;;24.50;41.80;;;;;;1507547;78;984;-69
2022/02/17 09:27:13;;;;;;;;;;;24.50;41.70;;;;;;1519694;78;711;-68
2022/02/17 09:29:15;;;;;;;;;;;24.50;41.70;;;;;;1516231;78;1942;-69
2022/02/17 09:31:23;;;;;;;;;;;24.40;41.60;;;;;;1509959;78;1152;-72
2022/02/17 09:33:21;;;;;;;;;;;24.40;41.60;;;;;;1523330;77;1557;-68
2022/02/17 09:35:22;;;;;;;;;;;24.40;41.60;;;;;;1525483;78;713;-67
2022/02/17 09:37:24;;;;;;;;;;;24.40;41.60;;;;;;1520903;78;762;-68
2022/02/17 09:39:28;;;;;;;;;;;24.40;41.60;;;;;;1519032;78;744;-69
2022/02/17 09:41:30;;;;;;;;;;;24.50;41.70;;;;;;1521164;77;1140;-69
2022/02/17 09:43:32;;;;;;;;;;;24.40;41.60;;;;;;1525599;77;724;-71
2022/02/17 09:45:36;;;;;;;;;;;24.40;41.60;;;;;;1516916;77;816;-69
2022/02/17 09:47:39;;;;;;;;;;;24.50;41.60;;;;;;1521495;76;1131;-68
2022/02/17 09:49:41;;;;;;;;;;;24.40;41.50;;;;;;1512609;78;1961;-68
2022/02/17 09:51:43;;;;;;;;;;;24.50;41.70;;;;;;1524543;78;1193;-69
2022/02/17 09:53:45;;;;;;;;;;;24.50;41.60;;;;;;1524461;78;710;-69
2022/02/17 09:55:47;;;;;;;;;;;24.50;41.60;;;;;;1517697;78;715;-69
2022/02/17 09:57:49;;;;;;;;;;;24.50;41.60;;;;;;1524068;78;726;-68
2022/02/17 09:59:51;;;;;;;;;;;24.40;41.50;;;;;;1519678;78;1177;-70
2022/02/17 10:01:53;;;;;;;;;;;24.40;41.50;;;;;;1515833;78;712;-69
2022/02/17 10:04:15;;;;;;;;;;;24.40;41.50;;;;;;1521835;78;1059;-68
2022/02/17 10:06:17;;;;;;;;;;;24.40;41.50;;;;;;1520231;78;698;-67
2022/02/17 10:08:22;;;;;;;;;;;24.40;41.40;;;;;;1524485;78;1913;-72
2022/02/17 10:10:25;;;;;;;;;;;24.40;41.50;;;;;;1519025;78;1136;-68
2022/02/17 10:12:29;;;;;;;;;;;24.50;41.50;;;;;;1522855;78;796;-68
2022/02/17 10:14:31;;;;;;;;;;;24.40;41.40;;;;;;1521633;77;1136;-68
2022/02/17 10:16:51;;;;;;;;;;;24.50;41.50;;;;;;1525364;78;788;-68
2022/02/17 10:18:53;;;;;;;;;;;24.40;41.50;;;;;;1520944;78;731;-68
2022/02/17 10:20:56;;;;;;;;;;;24.40;41.50;;;;;;1523042;78;1175;-67
2022/02/17 10:22:59;;;;;;;;;;;24.40;41.50;;;;;;1525206;77;818;-67
2022/02/17 10:25:01;;;;;;;;;;;24.30;41.50;;;;;;1524440;77;1723;-68
2022/02/17 10:27:04;;;;;;;;;;;24.40;41.50;;;;;;1525545;78;639;-67
2022/02/17 10:29:08;;;;;;;;;;;24.40;41.50;;;;;;1524382;78;1944;-65
2022/02/17 10:31:11;;;;;;;;;;;24.40;41.50;;;;;;1525481;77;1553;-67
2022/02/17 10:33:13;;;;;;;;;;;24.40;41.50;;;;;;1518445;78;1413;-68
2022/02/17 10:35:15;;;;;;;;;;;24.40;41.50;;;;;;1525175;78;721;-69
2022/02/17 10:37:18;;;;;;;;;;;24.30;41.40;;;;;;1525461;78;764;-70
2022/02/17 10:39:25;;;;;;;;;;;24.40;41.50;;;;;;1524490;78;764;-68
2022/02/17 10:41:46;;;;;;;;;;;24.40;41.40;;;;;;1525390;77;1637;-67
2022/02/17 10:43:49;;;;;;;;;;;24.30;41.40;;;;;;1524409;78;749;-67
2022/02/17 10:45:51;;;;;;;;;;;24.50;41.50;;;;;;1523240;78;649;-67
2022/02/17 10:47:53;;;;;;;;;;;24.40;41.40;;;;;;1525219;77;728;-66
2022/02/17 10:49:57;;;;;;;;;;;24.50;41.50;;;;;;1522460;78;1940;-67
2022/02/17 10:52:00;;;;;;;;;;;24.50;41.50;;;;;;1524412;77;1576;-68
2022/02/17 10:54:02;;;;;;;;;;;24.50;41.40;;;;;;1525694;78;790;-69
2022/02/17 10:56:05;;;;;;;;;;;24.50;41.40;;;;;;1520256;77;842;-70
2022/02/17 10:58:11;;;;;;;;;;;24.60;41.30;;;;;;1525179;78;713;-69
2022/02/17 11:00:14;;;;;;;;;;;24.70;41.40;;;;;;1519490;77;1873;-69
2022/02/17 11:02:16;;;;;;;;;;;24.70;41.30;;;;;;1525660;78;683;-69
2022/02/17 11:04:18;;;;;;;;;;;24.70;41.20;;;;;;1498603;77;737;-69
2022/02/17 11:06:21;;;;;;;;;;;24.80;41.20;;;;;;1504605;79;738;-70
2022/02/17 11:08:22;;;;;;;;;;;24.80;41.10;;;;;;1505726;77;776;-69
2022/02/17 11:10:24;;;;;;;;;;;24.80;41.00;;;;;;1505407;79;1949;-70
2022/02/17 11:12:26;;;;;;;;;;;24.90;41.10;;;;;;1508453;77;731;-70
2022/02/17 11:14:40;;;;;;;;;;;24.90;41.10;;;;;;1501079;79;699;-70
2022/02/17 11:16:42;;;;;;;;;;;24.80;41.00;;;;;;1505507;79;757;-70
2022/02/17 11:18:44;;;;;;;;;;;24.90;41.00;;;;;;1501600;77;710;-70
2022/02/17 11:20:50;;;;;;;;;;;24.80;40.90;;;;;;1507626;79;1158;-69
2022/02/17 11:22:52;;;;;;;;;;;24.90;41.00;;;;;;1508412;79;738;-70
2022/02/17 11:24:54;;;;;;;;;;;24.90;40.90;;;;;;1508485;79;739;-70
2022/02/17 11:27:02;;;;;;;;;;;24.90;40.90;;;;;;1502039;79;700;-70
2022/02/17 11:29:23;;;;;;;;;;;24.90;40.90;;;;;;1508405;79;1934;-72
2022/02/17 11:31:25;;;;;;;;;;;25.00;40.80;;;;;;1500681;79;1142;-70
2022/02/17 11:33:32;;;;;;;;;;;24.90;40.80;;;;;;1508375;79;678;-71
2022/02/17 11:35:34;;;;;;;;;;;25.00;40.80;;;;;;1506918;79;688;-70
2022/02/17 11:37:37;;;;;;;;;;;25.00;40.70;;;;;;1508591;79;700;-70
2022/02/17 11:39:41;;;;;;;;;;;24.90;40.70;;;;;;1492430;79;983;-72
2022/02/17 11:41:43;;;;;;;;;;;24.90;40.70;;;;;;1500982;79;1131;-71
2022/02/17 11:43:48;;;;;;;;;;;25.00;40.60;;;;;;1491315;78;1235;-70
2022/02/17 11:45:50;;;;;;;;;;;24.90;40.70;;;;;;1505448;78;708;-70
2022/02/17 11:48:04;;;;;;;;;;;25.00;40.50;;;;;;1480845;79;733;-71
2022/02/17 11:50:08;;;;;;;;;;;25.00;40.60;;;;;;1478387;79;1924;-70
2022/02/17 11:52:13;;;;;;;;;;;25.00;40.50;;;;;;1480372;79;972;-69
2022/02/17 11:54:16;;;;;;;;;;;25.00;40.50;;;;;;1482614;79;684;-69
2022/02/17 11:56:20;;;;;;;;;;;25.00;40.50;;;;;;1491413;79;797;-69
2022/02/17 11:58:40;;;;;;;;;;;25.00;40.50;;;;;;1487359;79;730;-70
2022/02/17 12:00:42;;;;;;;;;;;25.00;40.50;;;;;;1487254;79;1193;-69
2022/02/17 12:02:44;;;;;;;;;;;25.00;40.50;;;;;;1464195;80;728;-69
2022/02/17 12:04:46;;;;;;;;;;;25.00;40.40;;;;;;1470792;80;710;-68
2022/02/17 12:06:52;;;;;;;;;;;25.00;40.40;;;;;;1469493;80;731;-70
2022/02/17 12:08:54;;;;;;;;;;;25.00;40.40;;;;;;1519564;78;1920;-71
2022/02/17 12:10:57;;;;;;;;;;;25.10;40.40;;;;;;1524437;78;1179;-71
2022/02/17 12:13:01;;;;;;;;;;;25.10;40.30;;;;;;1522677;78;1005;-72
2022/02/17 12:15:04;;;;;;;;;;;25.10;40.30;;;;;;1525392;77;1154;-71